sensor_id;sensor_type;location;lat;lon;timestamp;temperature;humidity
51215;DHT22;63849;47.546;19.254;2022-12-24T00:02:18;6.20;87.90
51215;DHT22;63849;47.546;19.254;2022-12-24T00:04:44;6.20;88.00
51215;DHT22;63849;47.546;19.254;2022-12-24T00:07:10;6.20;88.10
51215;DHT22;63849;47.546;19.254;2022-12-24T00:09:36;6.30;88.20
51215;DHT22;63849;47.546;19.254;2022-12-24T00:12:01;6.30;88.20
51215;DHT22;63849;47.546;19.254;2022-12-24T00:14:27;6.30;88.20
51215;DHT22;63849;47.546;19.254;2022-12-24T00:16:53;6.30;88.30
51215;DHT22;63849;47.546;19.254;2022-12-24T00:19:19;6.30;88.20
51215;DHT22;63849;47.546;19.254;2022-12-24T00:21:44;6.30;88.20
51215;DHT22;63849;47.546;19.254;2022-12-24T00:24:10;6.30;88.20
51215;DHT22;63849;47.546;19.254;2022-12-24T00:26:36;6.30;88.20
51215;DHT22;63849;47.546;19.254;2022-12-24T00:29:02;6.30;88.20
51215;DHT22;63849;47.546;19.254;2022-12-24T00:31:27;6.30;88.30
51215;DHT22;63849;47.546;19.254;2022-12-24T00:33:53;6.30;88.40
51215;DHT22;63849;47.546;19.254;2022-12-24T00:36:20;6.30;88.50
51215;DHT22;63849;47.546;19.254;2022-12-24T00:38:46;6.30;88.50
51215;DHT22;63849;47.546;19.254;2022-12-24T00:41:13;6.30;88.50
51215;DHT22;63849;47.546;19.254;2022-12-24T00:44:02;6.40;88.40
51215;DHT22;63849;47.546;19.254;2022-12-24T00:46:31;6.40;88.50
51215;DHT22;63849;47.546;19.254;2022-12-24T00:48:57;6.40;88.50
51215;DHT22;63849;47.546;19.254;2022-12-24T00:51:23;6.40;88.50
51215;DHT22;63849;47.546;19.254;2022-12-24T00:53:50;6.50;88.60
51215;DHT22;63849;47.546;19.254;2022-12-24T00:56:16;6.40;88.60
51215;DHT22;63849;47.546;19.254;2022-12-24T00:58:42;6.40;88.60
51215;DHT22;63849;47.546;19.254;2022-12-24T01:01:08;6.50;88.60
51215;DHT22;63849;47.546;19.254;2022-12-24T01:03:33;6.50;88.60
51215;DHT22;63849;47.546;19.254;2022-12-24T01:06:04;6.40;88.60
51215;DHT22;63849;47.546;19.254;2022-12-24T01:08:30;6.50;88.60
51215;DHT22;63849;47.546;19.254;2022-12-24T01:10:56;6.50;88.60
51215;DHT22;63849;47.546;19.254;2022-12-24T01:13:22;6.50;88.60
51215;DHT22;63849;47.546;19.254;2022-12-24T01:15:48;6.50;88.60
51215;DHT22;63849;47.546;19.254;2022-12-24T01:18:13;6.50;88.60
51215;DHT22;63849;47.546;19.254;2022-12-24T01:20:39;6.50;88.60
51215;DHT22;63849;47.546;19.254;2022-12-24T01:23:05;6.50;88.60
51215;DHT22;63849;47.546;19.254;2022-12-24T01:25:31;6.50;88.60
51215;DHT22;63849;47.546;19.254;2022-12-24T01:27:56;6.50;88.70
51215;DHT22;63849;47.546;19.254;2022-12-24T01:30:22;6.50;88.70
51215;DHT22;63849;47.546;19.254;2022-12-24T01:32:48;6.40;88.70
51215;DHT22;63849;47.546;19.254;2022-12-24T01:35:14;6.40;88.80
51215;DHT22;63849;47.546;19.254;2022-12-24T01:37:41;6.40;88.70
51215;DHT22;63849;47.546;19.254;2022-12-24T01:40:09;6.40;88.80
51215;DHT22;63849;47.546;19.254;2022-12-24T01:42:56;6.40;88.80
51215;DHT22;63849;47.546;19.254;2022-12-24T01:46:27;6.40;88.70
51215;DHT22;63849;47.546;19.254;2022-12-24T01:48:55;6.50;88.70
51215;DHT22;63849;47.546;19.254;2022-12-24T01:51:48;6.50;88.70
51215;DHT22;63849;47.546;19.254;2022-12-24T01:54:21;6.50;88.60
51215;DHT22;63849;47.546;19.254;2022-12-24T01:56:53;6.40;88.60
51215;DHT22;63849;47.546;19.254;2022-12-24T01:59:21;6.40;88.60
51215;DHT22;63849;47.546;19.254;2022-12-24T02:01:49;6.50;88.60
51215;DHT22;63849;47.546;19.254;2022-12-24T02:04:39;6.50;88.60
51215;DHT22;63849;47.546;19.254;2022-12-24T02:07:07;6.50;88.50
51215;DHT22;63849;47.546;19.254;2022-12-24T02:09:34;6.50;88.60
51215;DHT22;63849;47.546;19.254;2022-12-24T02:12:01;6.50;88.60
51215;DHT22;63849;47.546;19.254;2022-12-24T02:14:29;6.50;88.60
51215;DHT22;63849;47.546;19.254;2022-12-24T02:19:57;6.60;88.60
51215;DHT22;63849;47.546;19.254;2022-12-24T02:22:32;6.60;88.70
51215;DHT22;63849;47.546;19.254;2022-12-24T02:30:32;6.60;88.80
51215;DHT22;63849;47.546;19.254;2022-12-24T02:38:34;6.60;88.90
51215;DHT22;63849;47.546;19.254;2022-12-24T02:41:21;6.60;88.90
51215;DHT22;63849;47.546;19.254;2022-12-24T02:43:50;6.60;88.90
51215;DHT22;63849;47.546;19.254;2022-12-24T02:46:24;6.60;89.00
51215;DHT22;63849;47.546;19.254;2022-12-24T02:48:50;6.60;89.00
51215;DHT22;63849;47.546;19.254;2022-12-24T02:51:51;6.60;89.00
51215;DHT22;63849;47.546;19.254;2022-12-24T02:54:17;6.60;88.90
51215;DHT22;63849;47.546;19.254;2022-12-24T02:57:16;6.60;88.90
51215;DHT22;63849;47.546;19.254;2022-12-24T03:00:03;6.60;88.90
51215;DHT22;63849;47.546;19.254;2022-12-24T03:05:33;6.60;88.90
51215;DHT22;63849;47.546;19.254;2022-12-24T03:11:02;6.60;88.80
51215;DHT22;63849;47.546;19.254;2022-12-24T03:13:30;6.60;88.80
51215;DHT22;63849;47.546;19.254;2022-12-24T03:15:56;6.50;88.70
51215;DHT22;63849;47.546;19.254;2022-12-24T03:18:24;6.50;88.70
51215;DHT22;63849;47.546;19.254;2022-12-24T03:20:59;6.50;88.90
51215;DHT22;63849;47.546;19.254;2022-12-24T03:23:26;6.50;88.90
51215;DHT22;63849;47.546;19.254;2022-12-24T03:25:52;6.50;88.90
51215;DHT22;63849;47.546;19.254;2022-12-24T03:28:18;6.50;88.80
51215;DHT22;63849;47.546;19.254;2022-12-24T03:30:48;6.60;88.80
51215;DHT22;63849;47.546;19.254;2022-12-24T03:33:15;6.60;88.70
51215;DHT22;63849;47.546;19.254;2022-12-24T03:35:41;6.60;88.60
51215;DHT22;63849;47.546;19.254;2022-12-24T03:38:07;6.60;88.60
51215;DHT22;63849;47.546;19.254;2022-12-24T03:40:32;6.50;88.50
51215;DHT22;63849;47.546;19.254;2022-12-24T03:42:58;6.60;88.50
51215;DHT22;63849;47.546;19.254;2022-12-24T03:45:24;6.50;88.40
51215;DHT22;63849;47.546;19.254;2022-12-24T03:47:50;6.50;88.50
51215;DHT22;63849;47.546;19.254;2022-12-24T03:50:15;6.50;88.50
51215;DHT22;63849;47.546;19.254;2022-12-24T03:52:41;6.50;88.40
51215;DHT22;63849;47.546;19.254;2022-12-24T03:55:07;6.50;88.40
51215;DHT22;63849;47.546;19.254;2022-12-24T03:57:33;6.40;88.40
51215;DHT22;63849;47.546;19.254;2022-12-24T03:59:58;6.50;88.40
51215;DHT22;63849;47.546;19.254;2022-12-24T04:02:24;6.50;88.50
51215;DHT22;63849;47.546;19.254;2022-12-24T04:04:50;6.50;88.50
51215;DHT22;63849;47.546;19.254;2022-12-24T04:07:16;6.50;88.50
51215;DHT22;63849;47.546;19.254;2022-12-24T04:09:41;6.50;88.60
51215;DHT22;63849;47.546;19.254;2022-12-24T04:12:08;6.50;88.60
51215;DHT22;63849;47.546;19.254;2022-12-24T04:14:33;6.50;88.60
51215;DHT22;63849;47.546;19.254;2022-12-24T04:16:59;6.50;88.60
51215;DHT22;63849;47.546;19.254;2022-12-24T04:19:25;6.60;88.60
51215;DHT22;63849;47.546;19.254;2022-12-24T04:21:50;6.60;88.60
51215;DHT22;63849;47.546;19.254;2022-12-24T04:24:16;6.50;88.50
51215;DHT22;63849;47.546;19.254;2022-12-24T04:26:42;6.50;88.40
51215;DHT22;63849;47.546;19.254;2022-12-24T04:29:08;6.50;88.40
51215;DHT22;63849;47.546;19.254;2022-12-24T04:31:33;6.50;88.30
51215;DHT22;63849;47.546;19.254;2022-12-24T04:33:59;6.40;88.30
51215;DHT22;63849;47.546;19.254;2022-12-24T04:36:25;6.40;88.20
51215;DHT22;63849;47.546;19.254;2022-12-24T04:38:51;6.40;88.20
51215;DHT22;63849;47.546;19.254;2022-12-24T04:41:19;6.40;88.10
51215;DHT22;63849;47.546;19.254;2022-12-24T04:43:45;6.30;88.10
51215;DHT22;63849;47.546;19.254;2022-12-24T04:46:14;6.40;88.10
51215;DHT22;63849;47.546;19.254;2022-12-24T04:48:43;6.40;88.10
51215;DHT22;63849;47.546;19.254;2022-12-24T04:51:10;6.40;88.10
51215;DHT22;63849;47.546;19.254;2022-12-24T04:53:36;6.40;88.00
51215;DHT22;63849;47.546;19.254;2022-12-24T04:56:03;6.40;88.00
51215;DHT22;63849;47.546;19.254;2022-12-24T04:58:32;6.40;88.00
51215;DHT22;63849;47.546;19.254;2022-12-24T05:01:03;6.40;87.90
51215;DHT22;63849;47.546;19.254;2022-12-24T05:03:29;6.40;87.90
51215;DHT22;63849;47.546;19.254;2022-12-24T05:06:01;6.40;87.90
51215;DHT22;63849;47.546;19.254;2022-12-24T05:08:26;6.30;87.90
51215;DHT22;63849;47.546;19.254;2022-12-24T05:10:57;6.30;87.80
51215;DHT22;63849;47.546;19.254;2022-12-24T05:13:23;6.30;87.90
51215;DHT22;63849;47.546;19.254;2022-12-24T05:15:49;6.30;87.90
51215;DHT22;63849;47.546;19.254;2022-12-24T05:18:15;6.30;87.80
51215;DHT22;63849;47.546;19.254;2022-12-24T05:20:41;6.40;87.90
51215;DHT22;63849;47.546;19.254;2022-12-24T05:23:08;6.40;87.80
51215;DHT22;63849;47.546;19.254;2022-12-24T05:25:52;6.40;87.70
51215;DHT22;63849;47.546;19.254;2022-12-24T05:28:36;6.40;87.60
51215;DHT22;63849;47.546;19.254;2022-12-24T05:31:02;6.40;87.60
51215;DHT22;63849;47.546;19.254;2022-12-24T05:33:28;6.30;87.50
51215;DHT22;63849;47.546;19.254;2022-12-24T05:35:54;6.30;87.60
51215;DHT22;63849;47.546;19.254;2022-12-24T05:38:19;6.30;87.90
51215;DHT22;63849;47.546;19.254;2022-12-24T05:40:45;6.30;88.10
51215;DHT22;63849;47.546;19.254;2022-12-24T05:43:11;6.20;88.20
51215;DHT22;63849;47.546;19.254;2022-12-24T05:45:37;6.20;88.30
51215;DHT22;63849;47.546;19.254;2022-12-24T05:48:03;6.20;88.20
51215;DHT22;63849;47.546;19.254;2022-12-24T05:50:28;6.30;88.10
51215;DHT22;63849;47.546;19.254;2022-12-24T05:52:54;6.30;88.00
51215;DHT22;63849;47.546;19.254;2022-12-24T05:55:20;6.30;87.90
51215;DHT22;63849;47.546;19.254;2022-12-24T05:57:45;6.30;87.90
51215;DHT22;63849;47.546;19.254;2022-12-24T06:00:11;6.30;87.90
51215;DHT22;63849;47.546;19.254;2022-12-24T06:02:37;6.30;87.90
51215;DHT22;63849;47.546;19.254;2022-12-24T06:05:03;6.30;88.00
51215;DHT22;63849;47.546;19.254;2022-12-24T06:07:29;6.30;88.20
51215;DHT22;63849;47.546;19.254;2022-12-24T06:09:55;6.40;88.30
51215;DHT22;63849;47.546;19.254;2022-12-24T06:12:20;6.30;88.30
51215;DHT22;63849;47.546;19.254;2022-12-24T06:14:46;6.30;88.30
51215;DHT22;63849;47.546;19.254;2022-12-24T06:17:12;6.30;88.20
51215;DHT22;63849;47.546;19.254;2022-12-24T06:19:38;6.40;88.20
51215;DHT22;63849;47.546;19.254;2022-12-24T06:22:03;6.30;88.00
51215;DHT22;63849;47.546;19.254;2022-12-24T06:24:29;6.40;87.90
51215;DHT22;63849;47.546;19.254;2022-12-24T06:26:55;6.30;87.80
51215;DHT22;63849;47.546;19.254;2022-12-24T06:29:20;6.30;87.80
51215;DHT22;63849;47.546;19.254;2022-12-24T06:31:46;6.30;87.70
51215;DHT22;63849;47.546;19.254;2022-12-24T06:34:12;6.30;87.80
51215;DHT22;63849;47.546;19.254;2022-12-24T06:36:37;6.30;87.70
51215;DHT22;63849;47.546;19.254;2022-12-24T06:39:04;6.30;87.60
51215;DHT22;63849;47.546;19.254;2022-12-24T06:41:30;6.30;87.40
51215;DHT22;63849;47.546;19.254;2022-12-24T06:43:56;6.30;87.30
51215;DHT22;63849;47.546;19.254;2022-12-24T06:46:22;6.30;87.30
51215;DHT22;63849;47.546;19.254;2022-12-24T06:48:47;6.30;87.20
51215;DHT22;63849;47.546;19.254;2022-12-24T06:51:15;6.30;87.20
51215;DHT22;63849;47.546;19.254;2022-12-24T06:53:41;6.30;87.20
51215;DHT22;63849;47.546;19.254;2022-12-24T06:56:09;6.30;87.10
51215;DHT22;63849;47.546;19.254;2022-12-24T06:58:36;6.30;87.00
51215;DHT22;63849;47.546;19.254;2022-12-24T07:01:03;6.30;86.90
51215;DHT22;63849;47.546;19.254;2022-12-24T07:03:30;6.30;86.90
51215;DHT22;63849;47.546;19.254;2022-12-24T07:05:56;6.20;86.80
51215;DHT22;63849;47.546;19.254;2022-12-24T07:08:21;6.30;86.80
51215;DHT22;63849;47.546;19.254;2022-12-24T07:10:48;6.30;86.90
51215;DHT22;63849;47.546;19.254;2022-12-24T07:13:15;6.30;87.00
51215;DHT22;63849;47.546;19.254;2022-12-24T07:15:40;6.30;87.10
51215;DHT22;63849;47.546;19.254;2022-12-24T07:18:06;6.30;87.20
51215;DHT22;63849;47.546;19.254;2022-12-24T07:20:32;6.30;87.30
51215;DHT22;63849;47.546;19.254;2022-12-24T07:22:58;6.30;87.40
51215;DHT22;63849;47.546;19.254;2022-12-24T07:25:23;6.30;87.40
51215;DHT22;63849;47.546;19.254;2022-12-24T07:27:49;6.30;87.40
51215;DHT22;63849;47.546;19.254;2022-12-24T07:30:15;6.30;87.50
51215;DHT22;63849;47.546;19.254;2022-12-24T07:32:41;6.30;87.50
51215;DHT22;63849;47.546;19.254;2022-12-24T07:35:07;6.30;87.60
51215;DHT22;63849;47.546;19.254;2022-12-24T07:37:33;6.40;87.70
51215;DHT22;63849;47.546;19.254;2022-12-24T07:39:59;6.40;87.90
51215;DHT22;63849;47.546;19.254;2022-12-24T07:42:25;6.40;88.20
51215;DHT22;63849;47.546;19.254;2022-12-24T07:44:50;6.50;88.30
51215;DHT22;63849;47.546;19.254;2022-12-24T07:47:16;6.50;88.40
51215;DHT22;63849;47.546;19.254;2022-12-24T07:49:42;6.60;88.50
51215;DHT22;63849;47.546;19.254;2022-12-24T07:52:08;6.50;88.60
51215;DHT22;63849;47.546;19.254;2022-12-24T07:54:33;6.60;88.60
51215;DHT22;63849;47.546;19.254;2022-12-24T07:56:59;6.60;88.70
51215;DHT22;63849;47.546;19.254;2022-12-24T07:59:25;6.70;88.70
51215;DHT22;63849;47.546;19.254;2022-12-24T08:01:51;6.80;89.00
51215;DHT22;63849;47.546;19.254;2022-12-24T08:04:17;6.90;89.40
51215;DHT22;63849;47.546;19.254;2022-12-24T08:06:42;7.00;89.60
51215;DHT22;63849;47.546;19.254;2022-12-24T08:09:08;7.00;89.70
51215;DHT22;63849;47.546;19.254;2022-12-24T08:11:34;7.00;89.80
51215;DHT22;63849;47.546;19.254;2022-12-24T08:13:59;7.10;89.80
51215;DHT22;63849;47.546;19.254;2022-12-24T08:16:25;7.10;89.80
51215;DHT22;63849;47.546;19.254;2022-12-24T08:18:51;7.20;89.90
51215;DHT22;63849;47.546;19.254;2022-12-24T08:21:17;7.20;90.00
51215;DHT22;63849;47.546;19.254;2022-12-24T08:23:43;7.30;90.10
51215;DHT22;63849;47.546;19.254;2022-12-24T08:26:09;7.30;90.20
51215;DHT22;63849;47.546;19.254;2022-12-24T08:28:36;7.30;90.20
51215;DHT22;63849;47.546;19.254;2022-12-24T08:31:01;7.30;90.30
51215;DHT22;63849;47.546;19.254;2022-12-24T08:33:27;7.30;90.20
51215;DHT22;63849;47.546;19.254;2022-12-24T08:35:54;7.30;90.30
51215;DHT22;63849;47.546;19.254;2022-12-24T08:38:21;7.40;90.30
51215;DHT22;63849;47.546;19.254;2022-12-24T08:40:47;7.40;90.40
51215;DHT22;63849;47.546;19.254;2022-12-24T08:43:15;7.50;90.40
51215;DHT22;63849;47.546;19.254;2022-12-24T08:45:41;7.50;90.50
51215;DHT22;63849;47.546;19.254;2022-12-24T08:48:08;7.50;90.50
51215;DHT22;63849;47.546;19.254;2022-12-24T08:50:35;7.60;90.40
51215;DHT22;63849;47.546;19.254;2022-12-24T08:53:02;7.60;90.40
51215;DHT22;63849;47.546;19.254;2022-12-24T08:55:28;7.70;90.40
51215;DHT22;63849;47.546;19.254;2022-12-24T08:57:54;7.70;90.40
51215;DHT22;63849;47.546;19.254;2022-12-24T09:00:20;7.80;90.40
51215;DHT22;63849;47.546;19.254;2022-12-24T09:02:46;7.80;90.40
51215;DHT22;63849;47.546;19.254;2022-12-24T09:05:11;7.80;90.30
51215;DHT22;63849;47.546;19.254;2022-12-24T09:07:37;7.80;90.30
51215;DHT22;63849;47.546;19.254;2022-12-24T09:10:03;7.80;90.30
51215;DHT22;63849;47.546;19.254;2022-12-24T09:12:29;7.80;90.30
51215;DHT22;63849;47.546;19.254;2022-12-24T09:14:55;7.80;90.40
51215;DHT22;63849;47.546;19.254;2022-12-24T09:17:21;7.80;90.30
51215;DHT22;63849;47.546;19.254;2022-12-24T09:19:47;7.80;90.30
51215;DHT22;63849;47.546;19.254;2022-12-24T09:22:13;7.80;90.30
51215;DHT22;63849;47.546;19.254;2022-12-24T09:24:39;7.90;90.40
51215;DHT22;63849;47.546;19.254;2022-12-24T09:27:05;8.00;90.30
51215;DHT22;63849;47.546;19.254;2022-12-24T09:29:31;8.00;90.30
51215;DHT22;63849;47.546;19.254;2022-12-24T09:31:57;8.00;90.20
51215;DHT22;63849;47.546;19.254;2022-12-24T09:34:23;8.10;90.10
51215;DHT22;63849;47.546;19.254;2022-12-24T09:36:49;8.10;90.00
51215;DHT22;63849;47.546;19.254;2022-12-24T09:39:16;8.10;89.90
51215;DHT22;63849;47.546;19.254;2022-12-24T09:41:46;8.10;89.90
51215;DHT22;63849;47.546;19.254;2022-12-24T09:44:26;8.10;89.80
51215;DHT22;63849;47.546;19.254;2022-12-24T09:46:53;8.20;89.80
51215;DHT22;63849;47.546;19.254;2022-12-24T09:49:26;8.20;89.70
51215;DHT22;63849;47.546;19.254;2022-12-24T09:51:57;8.20;89.70
51215;DHT22;63849;47.546;19.254;2022-12-24T09:54:34;8.10;89.70
51215;DHT22;63849;47.546;19.254;2022-12-24T10:00:02;8.20;89.70
51215;DHT22;63849;47.546;19.254;2022-12-24T10:02:28;8.30;89.70
51215;DHT22;63849;47.546;19.254;2022-12-24T10:04:54;8.30;89.70
51215;DHT22;63849;47.546;19.254;2022-12-24T10:10:37;8.30;89.60
51215;DHT22;63849;47.546;19.254;2022-12-24T10:13:34;8.30;89.60
51215;DHT22;63849;47.546;19.254;2022-12-24T10:21:15;8.40;89.50
51215;DHT22;63849;47.546;19.254;2022-12-24T10:23:58;8.30;89.50
51215;DHT22;63849;47.546;19.254;2022-12-24T10:26:36;8.40;89.50
51215;DHT22;63849;47.546;19.254;2022-12-24T10:31:54;8.40;89.60
51215;DHT22;63849;47.546;19.254;2022-12-24T10:34:23;8.40;89.60
51215;DHT22;63849;47.546;19.254;2022-12-24T10:36:50;8.50;89.50
51215;DHT22;63849;47.546;19.254;2022-12-24T10:39:23;8.60;89.30
51215;DHT22;63849;47.546;19.254;2022-12-24T10:41:51;8.60;89.30
51215;DHT22;63849;47.546;19.254;2022-12-24T10:44:27;8.60;89.20
51215;DHT22;63849;47.546;19.254;2022-12-24T10:46:54;8.70;89.10
51215;DHT22;63849;47.546;19.254;2022-12-24T10:49:35;8.60;89.00
51215;DHT22;63849;47.546;19.254;2022-12-24T10:52:05;8.60;88.90
51215;DHT22;63849;47.546;19.254;2022-12-24T10:54:35;8.70;89.00
51215;DHT22;63849;47.546;19.254;2022-12-24T10:57:05;8.60;89.00
51215;DHT22;63849;47.546;19.254;2022-12-24T10:59:48;8.60;89.00
51215;DHT22;63849;47.546;19.254;2022-12-24T11:02:30;8.60;89.00
51215;DHT22;63849;47.546;19.254;2022-12-24T11:04:57;8.60;89.00
51215;DHT22;63849;47.546;19.254;2022-12-24T11:07:27;8.60;89.10
51215;DHT22;63849;47.546;19.254;2022-12-24T11:10:03;8.70;89.10
51215;DHT22;63849;47.546;19.254;2022-12-24T11:12:32;8.60;89.10
51215;DHT22;63849;47.546;19.254;2022-12-24T11:15:16;8.70;89.20
51215;DHT22;63849;47.546;19.254;2022-12-24T11:17:55;8.80;89.20
51215;DHT22;63849;47.546;19.254;2022-12-24T11:20:26;8.90;89.10
51215;DHT22;63849;47.546;19.254;2022-12-24T11:22:53;8.90;89.00
51215;DHT22;63849;47.546;19.254;2022-12-24T11:25:26;9.00;88.90
51215;DHT22;63849;47.546;19.254;2022-12-24T11:27:54;9.10;88.80
51215;DHT22;63849;47.546;19.254;2022-12-24T11:33:13;9.10;88.60
51215;DHT22;63849;47.546;19.254;2022-12-24T11:35:44;9.00;88.60
51215;DHT22;63849;47.546;19.254;2022-12-24T11:38:14;9.10;88.50
51215;DHT22;63849;47.546;19.254;2022-12-24T11:40:44;9.10;88.30
51215;DHT22;63849;47.546;19.254;2022-12-24T11:43:19;9.10;88.10
51215;DHT22;63849;47.546;19.254;2022-12-24T11:45:54;9.20;88.00
51215;DHT22;63849;47.546;19.254;2022-12-24T11:48:30;9.20;87.80
51215;DHT22;63849;47.546;19.254;2022-12-24T11:51:01;9.20;87.60
51215;DHT22;63849;47.546;19.254;2022-12-24T11:53:35;9.20;87.00
51215;DHT22;63849;47.546;19.254;2022-12-24T11:56:07;9.30;86.20
51215;DHT22;63849;47.546;19.254;2022-12-24T12:04:37;9.30;82.20
51215;DHT22;63849;47.546;19.254;2022-12-24T12:10:20;9.30;81.10
51215;DHT22;63849;47.546;19.254;2022-12-24T12:12:56;9.30;80.70
51215;DHT22;63849;47.546;19.254;2022-12-24T12:15:26;9.30;81.20
51215;DHT22;63849;47.546;19.254;2022-12-24T12:20:33;9.40;80.60
51215;DHT22;63849;47.546;19.254;2022-12-24T12:26:22;9.40;80.10
51215;DHT22;63849;47.546;19.254;2022-12-24T12:31:37;9.50;79.40
51215;DHT22;63849;47.546;19.254;2022-12-24T12:34:21;9.50;79.50
51215;DHT22;63849;47.546;19.254;2022-12-24T12:37:13;9.50;79.90
51215;DHT22;63849;47.546;19.254;2022-12-24T12:39:38;9.50;79.30
51215;DHT22;63849;47.546;19.254;2022-12-24T12:44:41;9.50;79.20
51215;DHT22;63849;47.546;19.254;2022-12-24T12:47:26;9.50;78.80
51215;DHT22;63849;47.546;19.254;2022-12-24T12:50:31;9.50;79.30
51215;DHT22;63849;47.546;19.254;2022-12-24T12:56:42;9.50;79.40
51215;DHT22;63849;47.546;19.254;2022-12-24T12:58:56;9.50;79.50
51215;DHT22;63849;47.546;19.254;2022-12-24T13:01:30;9.50;79.10
51215;DHT22;63849;47.546;19.254;2022-12-24T13:04:09;9.50;79.50
51215;DHT22;63849;47.546;19.254;2022-12-24T13:18:00;9.20;81.20
51215;DHT22;63849;47.546;19.254;2022-12-24T13:20:30;9.20;81.10
51215;DHT22;63849;47.546;19.254;2022-12-24T13:23:16;9.30;81.10
51215;DHT22;63849;47.546;19.254;2022-12-24T13:25:45;9.30;81.30
51215;DHT22;63849;47.546;19.254;2022-12-24T13:30:52;9.20;81.80
51215;DHT22;63849;47.546;19.254;2022-12-24T13:47:15;9.20;81.30
51215;DHT22;63849;47.546;19.254;2022-12-24T13:49:45;9.30;81.20
51215;DHT22;63849;47.546;19.254;2022-12-24T13:52:17;9.30;81.10
51215;DHT22;63849;47.546;19.254;2022-12-24T14:00:04;9.30;81.10
51215;DHT22;63849;47.546;19.254;2022-12-24T14:02:34;9.40;80.90
51215;DHT22;63849;47.546;19.254;2022-12-24T14:05:05;9.30;80.90
51215;DHT22;63849;47.546;19.254;2022-12-24T14:07:34;9.30;81.30
51215;DHT22;63849;47.546;19.254;2022-12-24T14:10:01;9.30;81.40
51215;DHT22;63849;47.546;19.254;2022-12-24T14:12:44;9.30;80.20
51215;DHT22;63849;47.546;19.254;2022-12-24T14:18:43;9.30;80.30
51215;DHT22;63849;47.546;19.254;2022-12-24T14:21:20;9.40;80.00
51215;DHT22;63849;47.546;19.254;2022-12-24T14:24:05;9.60;77.60
51215;DHT22;63849;47.546;19.254;2022-12-24T14:26:44;9.50;78.00
51215;DHT22;63849;47.546;19.254;2022-12-24T14:29:29;9.40;78.80
51215;DHT22;63849;47.546;19.254;2022-12-24T14:31:58;9.40;78.90
51215;DHT22;63849;47.546;19.254;2022-12-24T14:34:25;9.30;78.90
51215;DHT22;63849;47.546;19.254;2022-12-24T14:36:53;9.30;79.00
51215;DHT22;63849;47.546;19.254;2022-12-24T14:39:33;9.30;79.30
51215;DHT22;63849;47.546;19.254;2022-12-24T14:45:47;9.10;80.50
51215;DHT22;63849;47.546;19.254;2022-12-24T14:56:15;9.00;81.40
51215;DHT22;63849;47.546;19.254;2022-12-24T14:58:42;8.90;81.80
51215;DHT22;63849;47.546;19.254;2022-12-24T15:01:21;8.80;82.10
51215;DHT22;63849;47.546;19.254;2022-12-24T15:04:02;8.80;82.40
51215;DHT22;63849;47.546;19.254;2022-12-24T15:06:30;8.80;82.80
51215;DHT22;63849;47.546;19.254;2022-12-24T15:08:57;8.80;83.00
51215;DHT22;63849;47.546;19.254;2022-12-24T15:11:23;8.70;83.40
51215;DHT22;63849;47.546;19.254;2022-12-24T15:13:52;8.80;83.70
51215;DHT22;63849;47.546;19.254;2022-12-24T15:16:30;8.70;83.80
51215;DHT22;63849;47.546;19.254;2022-12-24T15:19:00;8.70;83.70
51215;DHT22;63849;47.546;19.254;2022-12-24T15:21:28;8.70;83.80
51215;DHT22;63849;47.546;19.254;2022-12-24T15:23:55;8.70;84.00
51215;DHT22;63849;47.546;19.254;2022-12-24T15:28:48;8.60;84.20
51215;DHT22;63849;47.546;19.254;2022-12-24T15:31:20;8.60;84.40
51215;DHT22;63849;47.546;19.254;2022-12-24T15:33:48;8.50;84.30
51215;DHT22;63849;47.546;19.254;2022-12-24T15:36:17;8.50;84.30
51215;DHT22;63849;47.546;19.254;2022-12-24T15:38:52;8.40;84.20
51215;DHT22;63849;47.546;19.254;2022-12-24T15:41:21;8.40;84.20
51215;DHT22;63849;47.546;19.254;2022-12-24T15:43:48;8.40;84.40
51215;DHT22;63849;47.546;19.254;2022-12-24T15:46:23;8.50;84.00
51215;DHT22;63849;47.546;19.254;2022-12-24T15:48:52;8.60;83.40
51215;DHT22;63849;47.546;19.254;2022-12-24T15:51:30;8.60;83.30
51215;DHT22;63849;47.546;19.254;2022-12-24T15:54:01;8.60;83.30
51215;DHT22;63849;47.546;19.254;2022-12-24T15:56:47;8.50;83.40
51215;DHT22;63849;47.546;19.254;2022-12-24T16:01:46;8.40;83.70
51215;DHT22;63849;47.546;19.254;2022-12-24T16:04:14;8.40;83.60
51215;DHT22;63849;47.546;19.254;2022-12-24T16:06:57;8.40;83.70
51215;DHT22;63849;47.546;19.254;2022-12-24T16:09:40;8.40;83.70
51215;DHT22;63849;47.546;19.254;2022-12-24T16:12:25;8.30;83.70
51215;DHT22;63849;47.546;19.254;2022-12-24T16:14:52;8.30;83.70
51215;DHT22;63849;47.546;19.254;2022-12-24T16:17:22;8.30;83.70
51215;DHT22;63849;47.546;19.254;2022-12-24T16:19:53;8.30;83.40
51215;DHT22;63849;47.546;19.254;2022-12-24T16:22:21;8.30;83.20
51215;DHT22;63849;47.546;19.254;2022-12-24T16:24:58;8.30;83.10
51215;DHT22;63849;47.546;19.254;2022-12-24T16:27:24;8.20;83.00
51215;DHT22;63849;47.546;19.254;2022-12-24T16:29:49;8.20;82.90
51215;DHT22;63849;47.546;19.254;2022-12-24T16:32:41;8.20;82.80
51215;DHT22;63849;47.546;19.254;2022-12-24T16:35:26;8.20;81.70
51215;DHT22;63849;47.546;19.254;2022-12-24T16:37:53;8.20;81.40
51215;DHT22;63849;47.546;19.254;2022-12-24T16:40:20;8.20;81.20
51215;DHT22;63849;47.546;19.254;2022-12-24T16:42:46;8.20;81.10
51215;DHT22;63849;47.546;19.254;2022-12-24T16:45:30;8.20;80.90
51215;DHT22;63849;47.546;19.254;2022-12-24T16:47:59;8.30;80.10
51215;DHT22;63849;47.546;19.254;2022-12-24T16:50:25;8.30;79.70
51215;DHT22;63849;47.546;19.254;2022-12-24T16:52:51;8.30;79.50
51215;DHT22;63849;47.546;19.254;2022-12-24T16:55:17;8.30;78.90
51215;DHT22;63849;47.546;19.254;2022-12-24T16:57:43;8.30;78.50
51215;DHT22;63849;47.546;19.254;2022-12-24T17:00:27;8.30;78.70
51215;DHT22;63849;47.546;19.254;2022-12-24T17:02:52;8.30;78.90
51215;DHT22;63849;47.546;19.254;2022-12-24T17:05:18;8.20;78.70
51215;DHT22;63849;47.546;19.254;2022-12-24T17:07:50;8.20;79.00
51215;DHT22;63849;47.546;19.254;2022-12-24T17:10:16;8.20;78.90
51215;DHT22;63849;47.546;19.254;2022-12-24T17:12:42;8.20;78.70
51215;DHT22;63849;47.546;19.254;2022-12-24T17:15:09;8.20;78.60
51215;DHT22;63849;47.546;19.254;2022-12-24T17:17:35;8.10;78.50
51215;DHT22;63849;47.546;19.254;2022-12-24T17:20:00;8.10;78.70
51215;DHT22;63849;47.546;19.254;2022-12-24T17:22:27;8.10;78.60
51215;DHT22;63849;47.546;19.254;2022-12-24T17:24:54;8.10;78.20
51215;DHT22;63849;47.546;19.254;2022-12-24T17:27:20;8.10;78.50
51215;DHT22;63849;47.546;19.254;2022-12-24T17:29:46;8.10;78.40
51215;DHT22;63849;47.546;19.254;2022-12-24T17:32:12;8.10;78.80
51215;DHT22;63849;47.546;19.254;2022-12-24T17:34:39;8.00;79.20
51215;DHT22;63849;47.546;19.254;2022-12-24T17:37:04;8.00;79.20
51215;DHT22;63849;47.546;19.254;2022-12-24T17:39:30;7.90;79.30